createdAt,value
2018-05-15T00:00:03.808Z,4.00
2018-05-15T00:01:03.831Z,4.00
2018-05-15T00:02:03.859Z,4.00
2018-05-15T00:03:03.881Z,4.00
2018-05-15T00:04:03.901Z,4.00
2018-05-15T00:05:03.975Z,4.00
2018-05-15T00:06:03.948Z,4.00
2018-05-15T00:07:03.971Z,4.00
2018-05-15T00:08:03.997Z,4.00
2018-05-15T00:09:04.021Z,4.00
2018-05-15T00:10:04.043Z,4.00
2018-05-15T00:11:04.065Z,4.00
2018-05-15T00:12:04.089Z,4.00
2018-05-15T00:13:04.114Z,4.00
2018-05-15T00:14:04.136Z,4.00
2018-05-15T00:15:04.159Z,4.00
2018-05-15T00:16:04.183Z,4.00
2018-05-15T00:17:04.205Z,4.00
2018-05-15T00:18:04.229Z,4.00
2018-05-15T00:19:04.251Z,4.00
2018-05-15T00:20:04.273Z,4.00
2018-05-15T00:21:04.297Z,4.00
2018-05-15T00:22:04.322Z,4.00
2018-05-15T00:23:04.344Z,4.00
2018-05-15T00:24:04.367Z,4.00
2018-05-15T00:25:04.390Z,4.00
2018-05-15T00:26:04.413Z,4.00
2018-05-15T00:27:04.439Z,4.00
2018-05-15T00:28:04.459Z,4.00
2018-05-15T00:29:04.483Z,4.00
2018-05-15T00:30:04.505Z,4.00
2018-05-15T00:31:04.528Z,4.00
2018-05-15T00:32:04.550Z,4.00
2018-05-15T00:33:04.575Z,4.00
2018-05-15T00:34:04.602Z,4.00
2018-05-15T00:35:04.619Z,4.00
2018-05-15T00:36:04.642Z,4.00
2018-05-15T00:37:04.667Z,4.00
2018-05-15T00:38:04.690Z,4.00
2018-05-15T00:39:04.725Z,4.00
2018-05-15T00:40:04.735Z,4.00
2018-05-15T00:41:04.757Z,4.00
2018-05-15T00:42:04.782Z,4.00
2018-05-15T00:43:04.804Z,4.00
2018-05-15T00:44:04.826Z,4.00
2018-05-15T00:45:04.851Z,4.00
2018-05-15T00:46:04.875Z,4.00
2018-05-15T00:47:04.893Z,4.00
2018-05-15T00:48:04.916Z,4.00
2018-05-15T00:49:04.939Z,4.00
2018-05-15T00:50:04.962Z,4.00
2018-05-15T00:51:04.985Z,4.00
2018-05-15T00:52:05.013Z,4.00
2018-05-15T00:53:05.031Z,4.00
2018-05-15T00:54:05.057Z,4.00
2018-05-15T00:55:05.126Z,4.00
2018-05-15T00:56:05.107Z,4.00
2018-05-15T00:57:05.122Z,4.00
2018-05-15T00:58:05.145Z,4.00
2018-05-15T00:59:05.167Z,4.00
2018-05-15T01:00:05.190Z,4.00
2018-05-15T01:01:05.213Z,4.00
2018-05-15T01:02:05.236Z,4.00
2018-05-15T01:03:05.258Z,4.00
2018-05-15T01:04:05.280Z,4.00
2018-05-15T01:05:05.304Z,4.00
2018-05-15T01:06:05.326Z,4.00
2018-05-15T01:07:05.347Z,4.00
2018-05-15T01:08:05.370Z,4.00
2018-05-15T01:09:05.471Z,4.00
2018-05-15T01:10:05.416Z,4.00
2018-05-15T01:11:05.439Z,4.00
2018-05-15T01:12:05.463Z,4.00
2018-05-15T01:13:05.486Z,4.00
2018-05-15T01:14:05.508Z,4.00
2018-05-15T01:15:05.530Z,4.00
2018-05-15T01:16:05.552Z,4.00
2018-05-15T01:17:05.576Z,4.00
2018-05-15T01:18:05.649Z,4.00
2018-05-15T01:19:05.620Z,4.00
2018-05-15T01:20:05.644Z,4.00
2018-05-15T01:21:05.667Z,4.00
2018-05-15T01:22:05.689Z,4.00
2018-05-15T01:23:05.711Z,4.00
2018-05-15T01:24:05.735Z,4.00
2018-05-15T01:25:05.756Z,4.00
2018-05-15T01:26:05.780Z,4.00
2018-05-15T01:27:05.802Z,4.00
2018-05-15T01:28:05.824Z,4.00
2018-05-15T01:29:05.848Z,4.00
2018-05-15T01:30:05.871Z,4.00
2018-05-15T01:31:05.892Z,4.00
2018-05-15T01:32:05.915Z,4.00
2018-05-15T01:33:05.937Z,4.00
2018-05-15T01:34:05.960Z,4.00
2018-05-15T01:35:06.042Z,4.00
2018-05-15T01:36:06.008Z,4.00
2018-05-15T01:37:06.028Z,4.00
2018-05-15T01:38:06.050Z,4.00
2018-05-15T01:39:06.077Z,4.00
2018-05-15T01:40:06.094Z,4.00
2018-05-15T01:41:06.117Z,4.00
2018-05-15T01:42:06.140Z,4.00
2018-05-15T01:43:06.161Z,4.00
2018-05-15T01:44:06.184Z,4.00
2018-05-15T01:45:06.208Z,4.00
2018-05-15T01:46:06.231Z,4.00
2018-05-15T01:47:06.252Z,4.00
2018-05-15T01:48:06.278Z,4.00
2018-05-15T01:49:06.296Z,4.00
2018-05-15T01:50:06.320Z,4.00
2018-05-15T01:51:06.344Z,4.00
2018-05-15T01:52:06.365Z,4.00
2018-05-15T01:53:06.386Z,4.00
2018-05-15T01:54:06.409Z,4.00
2018-05-15T01:55:06.431Z,4.00
2018-05-15T01:56:06.453Z,4.00
2018-05-15T01:57:06.475Z,4.00
2018-05-15T01:58:06.499Z,4.00
2018-05-15T01:59:06.519Z,4.00
2018-05-15T02:00:06.542Z,4.00
2018-05-15T02:01:06.563Z,4.00
2018-05-15T02:02:06.587Z,4.00
2018-05-15T02:03:06.610Z,4.00
2018-05-15T02:04:06.631Z,4.00
2018-05-15T02:05:06.654Z,4.00
2018-05-15T02:06:06.676Z,4.00
2018-05-15T02:07:06.696Z,4.00
2018-05-15T02:08:06.720Z,4.00
2018-05-15T02:09:06.744Z,4.00
2018-05-15T02:10:06.765Z,4.00
2018-05-15T02:11:06.786Z,4.00
2018-05-15T02:12:06.809Z,4.00
2018-05-15T02:13:06.831Z,4.00
2018-05-15T02:14:06.855Z,4.00
2018-05-15T02:15:06.874Z,4.00
2018-05-15T02:16:06.899Z,4.00
2018-05-15T02:17:06.920Z,4.00
2018-05-15T02:18:06.943Z,4.00
2018-05-15T02:19:06.964Z,4.00
2018-05-15T02:20:06.990Z,4.00
2018-05-15T02:21:07.052Z,4.00
2018-05-15T02:22:07.030Z,4.00
2018-05-15T02:23:07.053Z,4.00
2018-05-15T02:24:07.077Z,4.00
2018-05-15T02:25:07.099Z,4.00
2018-05-15T02:26:07.120Z,4.00
2018-05-15T02:27:07.142Z,4.00
2018-05-15T02:28:07.163Z,4.00
2018-05-15T02:29:07.186Z,4.00
2018-05-15T02:30:07.208Z,4.00
2018-05-15T02:31:07.230Z,4.00
2018-05-15T02:32:07.252Z,4.00
2018-05-15T02:33:07.274Z,4.00
2018-05-15T02:34:07.299Z,4.00
2018-05-15T02:35:07.344Z,4.00
2018-05-15T02:36:07.345Z,4.00
2018-05-15T02:37:07.368Z,4.00
2018-05-15T02:38:07.387Z,4.00
2018-05-15T02:39:07.406Z,4.00
2018-05-15T02:40:07.428Z,4.00
2018-05-15T02:41:07.450Z,4.00
2018-05-15T02:42:07.473Z,4.00
2018-05-15T02:43:07.495Z,4.00
2018-05-15T02:44:07.518Z,4.00
2018-05-15T02:45:07.540Z,4.00
2018-05-15T02:46:07.561Z,4.00
2018-05-15T02:47:07.583Z,4.00
2018-05-15T02:48:07.606Z,4.00
2018-05-15T02:49:07.628Z,4.00
2018-05-15T02:50:07.649Z,4.00
2018-05-15T02:51:07.671Z,4.00
2018-05-15T02:52:07.694Z,4.00
2018-05-15T02:53:07.717Z,8.00
2018-05-15T02:54:07.739Z,8.00
2018-05-15T02:55:07.758Z,8.00
2018-05-15T02:56:07.781Z,8.00
2018-05-15T02:57:07.804Z,8.00
2018-05-15T02:58:07.826Z,4.00
2018-05-15T02:59:07.847Z,4.00
2018-05-15T03:00:07.869Z,4.00
2018-05-15T03:01:07.891Z,8.00
2018-05-15T03:02:07.914Z,8.00
2018-05-15T03:03:07.936Z,8.00
2018-05-15T03:04:07.958Z,8.00
2018-05-15T03:05:07.979Z,8.00
2018-05-15T03:06:08.002Z,8.00
2018-05-15T03:07:08.023Z,8.00
2018-05-15T03:08:08.044Z,12.00
2018-05-15T03:09:08.066Z,8.00
2018-05-15T03:10:08.090Z,12.00
2018-05-15T03:11:08.112Z,12.00
2018-05-15T03:12:08.141Z,12.00
2018-05-15T03:13:08.158Z,12.00
2018-05-15T03:14:08.177Z,16.00
2018-05-15T03:15:08.199Z,16.00
2018-05-15T03:16:08.270Z,12.00
2018-05-15T03:17:08.243Z,16.00
2018-05-15T03:18:08.265Z,20.00
2018-05-15T03:19:08.285Z,20.00
2018-05-15T03:20:08.311Z,24.00
2018-05-15T03:21:08.331Z,24.00
2018-05-15T03:22:08.354Z,32.00
2018-05-15T03:23:08.373Z,32.00
2018-05-15T03:24:08.399Z,36.00
2018-05-15T03:25:08.420Z,40.00
2018-05-15T03:26:08.439Z,44.00
2018-05-15T03:27:08.461Z,48.00
2018-05-15T03:28:08.487Z,56.00
2018-05-15T03:29:08.505Z,64.00
2018-05-15T03:30:08.526Z,68.00
2018-05-15T03:31:08.547Z,76.00
2018-05-15T03:32:08.569Z,80.00
2018-05-15T03:33:08.591Z,92.00
2018-05-15T03:34:08.619Z,100.00
2018-05-15T03:35:08.634Z,104.00
2018-05-15T03:36:08.657Z,116.00
2018-05-15T03:37:08.680Z,124.00
2018-05-15T03:38:08.699Z,132.00
2018-05-15T03:39:08.721Z,144.00
2018-05-15T03:40:08.743Z,156.00
2018-05-15T03:41:08.768Z,168.00
2018-05-15T03:42:08.837Z,180.00
2018-05-15T03:43:08.809Z,192.00
2018-05-15T03:44:08.829Z,204.00
2018-05-15T03:45:08.853Z,220.00
2018-05-15T03:46:08.874Z,232.00
2018-05-15T03:47:08.894Z,248.00
2018-05-15T03:48:08.916Z,264.00
2018-05-15T03:49:08.952Z,276.00
2018-05-15T03:50:08.961Z,292.00
2018-05-15T03:51:08.980Z,308.00
2018-05-15T03:52:09.001Z,324.00
2018-05-15T03:53:09.024Z,340.00
2018-05-15T03:54:09.045Z,360.00
2018-05-15T03:55:09.066Z,376.00
2018-05-15T03:56:09.089Z,392.00
2018-05-15T03:57:09.111Z,416.00
2018-05-15T03:58:09.133Z,432.00
2018-05-15T03:59:09.153Z,452.00
2018-05-15T04:00:09.175Z,472.00
2018-05-15T04:01:09.196Z,488.00
2018-05-15T04:02:09.218Z,504.00
2018-05-15T04:03:09.239Z,528.00
2018-05-15T04:04:09.261Z,544.00
2018-05-15T04:05:09.283Z,564.00
2018-05-15T04:06:09.304Z,588.00
2018-05-15T04:07:09.325Z,604.00
2018-05-15T04:08:09.346Z,624.00
2018-05-15T04:09:09.368Z,644.00
2018-05-15T04:10:09.393Z,664.00
2018-05-15T04:11:09.456Z,684.00
2018-05-15T04:12:09.433Z,704.00
2018-05-15T04:13:09.454Z,716.00
2018-05-15T04:14:09.477Z,736.00
2018-05-15T04:15:09.497Z,752.00
2018-05-15T04:16:09.519Z,772.00
2018-05-15T04:17:09.540Z,796.00
2018-05-15T04:18:09.562Z,808.00
2018-05-15T04:19:09.583Z,828.00
2018-05-15T04:20:09.605Z,844.00
2018-05-15T04:21:09.627Z,860.00
2018-05-15T04:22:09.651Z,880.00
2018-05-15T04:23:09.670Z,892.00
2018-05-15T04:24:09.691Z,908.00
2018-05-15T04:25:09.713Z,924.00
2018-05-15T04:26:09.735Z,944.00
2018-05-15T04:27:09.755Z,960.00
2018-05-15T04:28:09.849Z,980.00
2018-05-15T04:29:09.798Z,996.00
2018-05-15T04:30:09.820Z,1016.00
2018-05-15T04:31:09.891Z,1036.00
2018-05-15T04:32:09.863Z,1056.00
2018-05-15T04:33:09.886Z,1076.00
2018-05-15T04:34:09.906Z,1096.00
2018-05-15T04:35:10.045Z,1112.00
2018-05-15T04:36:09.948Z,1132.00
2018-05-15T04:37:09.976Z,1156.00
2018-05-15T04:38:09.993Z,1172.00
2018-05-15T04:39:10.012Z,1196.00
2018-05-15T04:40:10.035Z,1208.00
2018-05-15T04:41:10.056Z,1232.00
2018-05-15T04:42:10.079Z,1256.00
2018-05-15T04:43:10.099Z,1272.00
2018-05-15T04:44:10.121Z,1296.00
2018-05-15T04:45:10.143Z,1320.00
2018-05-15T04:46:10.164Z,1344.00
2018-05-15T04:47:10.189Z,1376.00
2018-05-15T04:48:10.205Z,1404.00
2018-05-15T04:49:10.227Z,1440.00
2018-05-15T04:50:10.250Z,1456.00
2018-05-15T04:51:10.274Z,1492.00
2018-05-15T04:52:10.292Z,1524.00
2018-05-15T04:53:10.315Z,1544.00
2018-05-15T04:54:10.335Z,1568.00
2018-05-15T04:55:10.358Z,1580.00
2018-05-15T04:56:10.378Z,1596.00
2018-05-15T04:57:10.400Z,1616.00
2018-05-15T04:58:10.423Z,1624.00
2018-05-15T04:59:10.442Z,1628.00
2018-05-15T05:00:10.464Z,1636.00
2018-05-15T05:01:10.486Z,1640.00
2018-05-15T05:02:10.508Z,1648.00
2018-05-15T05:03:10.529Z,1652.00
2018-05-15T05:04:10.552Z,1668.00
2018-05-15T05:05:10.572Z,1668.00
2018-05-15T05:06:10.595Z,1680.00
2018-05-15T05:07:10.616Z,1676.00
2018-05-15T05:08:10.638Z,1696.00
2018-05-15T05:09:10.659Z,1696.00
2018-05-15T05:10:10.682Z,1696.00
2018-05-15T05:11:10.701Z,1708.00
2018-05-15T05:12:10.723Z,1712.00
2018-05-15T05:13:10.746Z,1720.00
2018-05-15T05:14:10.767Z,1728.00
2018-05-15T05:15:10.789Z,1740.00
2018-05-15T05:16:10.811Z,1760.00
2018-05-15T05:17:10.832Z,1772.00
2018-05-15T05:18:10.855Z,1784.00
2018-05-15T05:19:10.879Z,1772.00
2018-05-15T05:20:10.899Z,1796.00
2018-05-15T05:21:10.921Z,1808.00
2018-05-15T05:22:10.941Z,1804.00
2018-05-15T05:23:10.965Z,1828.00
2018-05-15T05:24:10.989Z,1828.00
2018-05-15T05:25:11.008Z,1832.00
2018-05-15T05:26:11.029Z,1860.00
2018-05-15T05:27:11.055Z,1860.00
2018-05-15T05:28:11.073Z,1864.00
2018-05-15T05:29:11.096Z,1888.00
2018-05-15T05:30:11.120Z,1920.00
2018-05-15T05:31:11.139Z,1920.00
2018-05-15T05:32:11.161Z,1924.00
2018-05-15T05:33:11.185Z,1940.00
2018-05-15T05:34:11.210Z,1944.00
2018-05-15T05:35:11.226Z,1964.00
2018-05-15T05:36:11.250Z,2000.00
2018-05-15T05:37:11.271Z,2012.00
2018-05-15T05:38:11.293Z,2032.00
2018-05-15T05:39:11.315Z,2088.00
2018-05-15T05:40:11.354Z,2212.00
2018-05-15T05:41:11.361Z,2292.00
2018-05-15T05:42:11.383Z,2432.00
2018-05-15T05:43:11.403Z,2548.00
2018-05-15T05:44:11.427Z,2564.00
2018-05-15T05:45:11.450Z,2572.00
2018-05-15T05:46:11.474Z,2588.00
2018-05-15T05:47:11.494Z,2608.00
2018-05-15T05:48:11.516Z,2628.00
2018-05-15T05:49:11.539Z,2680.00
2018-05-15T05:50:11.561Z,2644.00
2018-05-15T05:51:11.582Z,2656.00
2018-05-15T05:52:11.606Z,2656.00
2018-05-15T05:53:11.628Z,2660.00
2018-05-15T05:54:11.654Z,2636.00
2018-05-15T05:55:11.675Z,2568.00
2018-05-15T05:56:11.698Z,2388.00
2018-05-15T05:57:11.721Z,2232.00
2018-05-15T05:58:11.746Z,2268.00
2018-05-15T05:59:11.768Z,2336.00
2018-05-15T06:00:11.791Z,2304.00
2018-05-15T06:01:11.817Z,2260.00
2018-05-15T06:02:11.839Z,2248.00
2018-05-15T06:03:11.864Z,2312.00
2018-05-15T06:04:11.885Z,2372.00
2018-05-15T06:05:11.909Z,2480.00
2018-05-15T06:06:11.934Z,2500.00
2018-05-15T06:07:11.958Z,2444.00
2018-05-15T06:08:11.978Z,2476.00
2018-05-15T06:09:12.154Z,2564.00
2018-05-15T06:10:12.027Z,2684.00
2018-05-15T06:11:12.050Z,2832.00
2018-05-15T06:12:12.074Z,2984.00
2018-05-15T06:13:12.104Z,3168.00
2018-05-15T06:14:12.190Z,3216.00
2018-05-15T06:15:12.144Z,3332.00
2018-05-15T06:16:12.168Z,3244.00
2018-05-15T06:17:12.192Z,3280.00
2018-05-15T06:18:12.215Z,3040.00
2018-05-15T06:19:12.238Z,2908.00
2018-05-15T06:20:12.313Z,2848.00
2018-05-15T06:21:12.285Z,2876.00
2018-05-15T06:22:12.310Z,2900.00
2018-05-15T06:23:12.334Z,2940.00
2018-05-15T06:24:12.357Z,2960.00
2018-05-15T06:25:12.383Z,3012.00
2018-05-15T06:26:12.406Z,3036.00
2018-05-15T06:27:12.436Z,3152.00
2018-05-15T06:28:12.454Z,3088.00
2018-05-15T06:29:12.477Z,3112.00
2018-05-15T06:30:12.501Z,3180.00
2018-05-15T06:31:12.525Z,3192.00
2018-05-15T06:32:12.548Z,3216.00
2018-05-15T06:33:12.572Z,3248.00
2018-05-15T06:34:12.596Z,3392.00
2018-05-15T06:35:12.819Z,3296.00
2018-05-15T06:36:12.643Z,3312.00
2018-05-15T06:37:12.667Z,3392.00
2018-05-15T06:38:12.691Z,3352.00
2018-05-15T06:39:12.714Z,3376.00
2018-05-15T06:40:12.737Z,3344.00
2018-05-15T06:41:12.761Z,3404.00
2018-05-15T06:42:12.785Z,3440.00
2018-05-15T06:43:12.808Z,3460.00
2018-05-15T06:44:12.833Z,3468.00
2018-05-15T06:45:12.856Z,3544.00
2018-05-15T06:46:12.879Z,3504.00
2018-05-15T06:47:12.902Z,3500.00
2018-05-15T06:48:12.925Z,3636.00
2018-05-15T06:49:12.950Z,3544.00
2018-05-15T06:50:12.973Z,3584.00
2018-05-15T06:51:12.996Z,3580.00
2018-05-15T06:52:13.023Z,3584.00
2018-05-15T06:53:13.044Z,3604.00
2018-05-15T06:54:13.067Z,3600.00
2018-05-15T06:55:13.099Z,3624.00
2018-05-15T06:56:13.120Z,3632.00
2018-05-15T06:57:13.139Z,3628.00
2018-05-15T06:58:13.162Z,3636.00
2018-05-15T06:59:13.186Z,3668.00
2018-05-15T07:00:13.210Z,3744.00
2018-05-15T07:01:13.236Z,3684.00
2018-05-15T07:02:13.257Z,3716.00
2018-05-15T07:03:13.280Z,3732.00
2018-05-15T07:04:13.305Z,3828.00
2018-05-15T07:05:13.328Z,4060.00
2018-05-15T07:06:13.352Z,4312.00
2018-05-15T07:07:13.375Z,4432.00
2018-05-15T07:08:13.399Z,4468.00
2018-05-15T07:09:13.424Z,4504.00
2018-05-15T07:10:13.447Z,4504.00
2018-05-15T07:11:13.471Z,4532.00
2018-05-15T07:12:13.495Z,4528.00
2018-05-15T07:13:13.519Z,4492.00
2018-05-15T07:14:13.543Z,4568.00
2018-05-15T07:15:13.571Z,4560.00
2018-05-15T07:16:13.591Z,4600.00
2018-05-15T07:17:13.618Z,4596.00
2018-05-15T07:18:13.642Z,4700.00
2018-05-15T07:19:13.669Z,4656.00
2018-05-15T07:20:13.691Z,4676.00
2018-05-15T07:21:13.715Z,4700.00
2018-05-15T07:22:13.795Z,4676.00
2018-05-15T07:23:13.766Z,4776.00
2018-05-15T07:24:13.790Z,4808.00
2018-05-15T07:25:13.818Z,4788.00
2018-05-15T07:26:13.842Z,4724.00
2018-05-15T07:27:13.867Z,4732.00
2018-05-15T07:28:13.892Z,4400.00
2018-05-15T07:29:13.917Z,4252.00
2018-05-15T07:30:13.945Z,4248.00
2018-05-15T07:31:13.972Z,4440.00
2018-05-15T07:32:13.995Z,4460.00
2018-05-15T07:33:14.108Z,4440.00
2018-05-15T07:34:14.050Z,4480.00
2018-05-15T07:35:14.076Z,4484.00
2018-05-15T07:36:14.100Z,4280.00
2018-05-15T07:37:14.128Z,4336.00
2018-05-15T07:38:14.151Z,4380.00
2018-05-15T07:39:14.177Z,4384.00
2018-05-15T07:40:14.290Z,4272.00
2018-05-15T07:41:14.231Z,4380.00
2018-05-15T07:42:14.257Z,4412.00
2018-05-15T07:43:14.282Z,4628.00
2018-05-15T07:44:14.307Z,4528.00
2018-05-15T07:45:14.386Z,4592.00
2018-05-15T07:46:14.360Z,4572.00
2018-05-15T07:47:14.387Z,4676.00
2018-05-15T07:48:14.418Z,4536.00
2018-05-15T07:49:14.439Z,4680.00
2018-05-15T07:50:14.464Z,4712.00
2018-05-15T07:51:14.489Z,4768.00
2018-05-15T07:52:14.515Z,4752.00
2018-05-15T07:53:14.541Z,4744.00
2018-05-15T07:54:14.567Z,4824.00
2018-05-15T07:55:14.592Z,4828.00
2018-05-15T07:56:14.631Z,4804.00
2018-05-15T07:57:14.648Z,4768.00
2018-05-15T07:58:14.669Z,4884.00
2018-05-15T07:59:14.700Z,4972.00
2018-05-15T08:00:14.721Z,4936.00
2018-05-15T08:01:14.746Z,5156.00
2018-05-15T08:02:14.776Z,5228.00
2018-05-15T08:03:14.797Z,4944.00
2018-05-15T08:04:14.825Z,4972.00
2018-05-15T08:05:14.851Z,5000.00
2018-05-15T08:06:14.876Z,4992.00
2018-05-15T08:07:14.901Z,5032.00
2018-05-15T08:08:14.928Z,5104.00
2018-05-15T08:09:14.953Z,5044.00
2018-05-15T08:10:14.979Z,5176.00
2018-05-15T08:11:15.006Z,5088.00
2018-05-15T08:12:15.031Z,5152.00
2018-05-15T08:13:15.056Z,5340.00
2018-05-15T08:14:15.083Z,5220.00
2018-05-15T08:15:15.108Z,5376.00
2018-05-15T08:16:15.195Z,5276.00
2018-05-15T08:17:15.160Z,5340.00
2018-05-15T08:18:15.188Z,5248.00
2018-05-15T08:19:15.212Z,5312.00
2018-05-15T08:20:15.237Z,5344.00
2018-05-15T08:21:15.263Z,5400.00
2018-05-15T08:22:15.300Z,5372.00
2018-05-15T08:23:15.317Z,5400.00
2018-05-15T08:24:15.341Z,5368.00
2018-05-15T08:25:15.368Z,5332.00
2018-05-15T08:26:15.393Z,4992.00
2018-05-15T08:27:15.419Z,5488.00
2018-05-15T08:28:15.445Z,5584.00
2018-05-15T08:29:15.472Z,5576.00
2018-05-15T08:30:15.501Z,5616.00
2018-05-15T08:31:15.524Z,5696.00
2018-05-15T08:32:15.552Z,5656.00
2018-05-15T08:33:15.575Z,5588.00
2018-05-15T08:34:15.601Z,5620.00
2018-05-15T08:35:15.627Z,5652.00
2018-05-15T08:36:15.653Z,5624.00
2018-05-15T08:37:15.686Z,5748.00
2018-05-15T08:38:15.705Z,5728.00
2018-05-15T08:39:15.732Z,5664.00
2018-05-15T08:40:15.759Z,5836.00
2018-05-15T08:41:15.785Z,5872.00
2018-05-15T08:42:15.811Z,6256.00
2018-05-15T08:43:15.837Z,6256.00
2018-05-15T08:44:15.863Z,6040.00
2018-05-15T08:45:15.893Z,6352.00
2018-05-15T08:46:15.917Z,5616.00
2018-05-15T08:47:15.941Z,5576.00
2018-05-15T08:48:15.968Z,5408.00
2018-05-15T08:49:16.044Z,5356.00
2018-05-15T08:50:16.021Z,5356.00
2018-05-15T08:51:16.046Z,5424.00
2018-05-15T08:52:16.073Z,5504.00
2018-05-15T08:53:16.103Z,5480.00
2018-05-15T08:54:16.128Z,5548.00
2018-05-15T08:55:16.153Z,5304.00
2018-05-15T08:56:16.179Z,5332.00
2018-05-15T08:57:16.206Z,5792.00
2018-05-15T08:58:16.232Z,5296.00
2018-05-15T08:59:16.258Z,5368.00
2018-05-15T09:00:16.283Z,5272.00
2018-05-15T09:01:16.460Z,5460.00
2018-05-15T09:02:16.339Z,5388.00
2018-05-15T09:03:16.361Z,5232.00
2018-05-15T09:04:16.389Z,5332.00
2018-05-15T09:05:16.415Z,5204.00
2018-05-15T09:06:16.443Z,5168.00
2018-05-15T09:07:16.468Z,5072.00
2018-05-15T09:08:16.493Z,5172.00
2018-05-15T09:09:16.528Z,5304.00
2018-05-15T09:10:16.547Z,5556.00
2018-05-15T09:11:16.572Z,5260.00
2018-05-15T09:12:16.599Z,5252.00
2018-05-15T09:13:16.626Z,5260.00
2018-05-15T09:14:16.652Z,5316.00
2018-05-15T09:15:16.679Z,5364.00
2018-05-15T09:16:16.704Z,5396.00
2018-05-15T09:17:16.731Z,5344.00
2018-05-15T09:18:16.836Z,5232.00
2018-05-15T09:19:16.791Z,5184.00
2018-05-15T09:20:16.809Z,5168.00
2018-05-15T09:21:16.837Z,5044.00
2018-05-15T09:22:16.862Z,5156.00
2018-05-15T09:23:16.893Z,5216.00
2018-05-15T09:24:16.927Z,5064.00
2018-05-15T09:25:16.942Z,5028.00
2018-05-15T09:26:16.969Z,5244.00
2018-05-15T09:27:16.995Z,5356.00
2018-05-15T09:28:17.020Z,5316.00
2018-05-15T09:29:17.136Z,5380.00
2018-05-15T09:30:17.075Z,5200.00
2018-05-15T09:31:17.099Z,5256.00
2018-05-15T09:32:17.126Z,5164.00
2018-05-15T09:33:17.155Z,5064.00
2018-05-15T09:34:17.181Z,5280.00
2018-05-15T09:35:17.211Z,5216.00
2018-05-15T09:36:17.232Z,5120.00
2018-05-15T09:37:17.259Z,5148.00
2018-05-15T09:38:17.287Z,5584.00
2018-05-15T09:39:17.311Z,4856.00
2018-05-15T09:40:17.338Z,4500.00
2018-05-15T09:41:17.364Z,4164.00
2018-05-15T09:42:17.395Z,4360.00
2018-05-15T09:43:17.419Z,4844.00
2018-05-15T09:44:17.445Z,5144.00
2018-05-15T09:45:17.481Z,5164.00
2018-05-15T09:46:17.498Z,4960.00
2018-05-15T09:47:17.525Z,5024.00
2018-05-15T09:48:17.556Z,5080.00
2018-05-15T09:49:17.579Z,5104.00
2018-05-15T09:50:17.605Z,5164.00
2018-05-15T09:51:17.631Z,5236.00
2018-05-15T09:52:17.669Z,5332.00
2018-05-15T09:53:17.686Z,5436.00
2018-05-15T09:54:17.712Z,5724.00
2018-05-15T09:55:17.739Z,5308.00
2018-05-15T09:56:17.766Z,5320.00
2018-05-15T09:57:17.793Z,5348.00
2018-05-15T09:58:17.820Z,5496.00
2018-05-15T09:59:17.846Z,5412.00
2018-05-15T10:00:17.873Z,5480.00
2018-05-15T10:01:17.901Z,5616.00
2018-05-15T10:02:17.928Z,5144.00
2018-05-15T10:03:17.957Z,5440.00
2018-05-15T10:04:17.982Z,5508.00
2018-05-15T10:05:18.008Z,5352.00
2018-05-15T10:06:18.035Z,5620.00
2018-05-15T10:07:18.060Z,5628.00
2018-05-15T10:08:18.089Z,5584.00
2018-05-15T10:09:18.115Z,5664.00
2018-05-15T10:10:18.144Z,5652.00
2018-05-15T10:11:18.168Z,5736.00
2018-05-15T10:12:18.196Z,5880.00
2018-05-15T10:13:18.223Z,5984.00
2018-05-15T10:14:18.293Z,6064.00
2018-05-15T10:15:18.278Z,6304.00
2018-05-15T10:16:18.303Z,6476.00
2018-05-15T10:17:18.330Z,6680.00
2018-05-15T10:18:18.357Z,6728.00
2018-05-15T10:19:18.385Z,6932.00
2018-05-15T10:20:18.415Z,7076.00
2018-05-15T10:21:18.437Z,6920.00
2018-05-15T10:22:18.465Z,7412.00
2018-05-15T10:23:18.491Z,7192.00
2018-05-15T10:24:18.519Z,7212.00
2018-05-15T10:25:18.546Z,7544.00
2018-05-15T10:26:18.593Z,7404.00
2018-05-15T10:27:18.602Z,7276.00
2018-05-15T10:28:18.628Z,7136.00
2018-05-15T10:29:18.654Z,6980.00
2018-05-15T10:30:18.683Z,6716.00
2018-05-15T10:31:18.709Z,6520.00
2018-05-15T10:32:19.395Z,5812.00
2018-05-15T10:33:18.765Z,6080.00
2018-05-15T10:34:18.795Z,5940.00
2018-05-15T10:35:18.819Z,6064.00
2018-05-15T10:36:18.845Z,6296.00
2018-05-15T10:37:18.876Z,6228.00
2018-05-15T10:38:18.901Z,6212.00
2018-05-15T10:39:18.928Z,6104.00
2018-05-15T10:40:18.960Z,6124.00
2018-05-15T10:41:18.987Z,6164.00
2018-05-15T10:42:19.011Z,6208.00
2018-05-15T10:43:19.040Z,6280.00
2018-05-15T10:44:19.125Z,6288.00
2018-05-15T10:45:19.096Z,6292.00
2018-05-15T10:46:19.120Z,6268.00
2018-05-15T10:47:19.147Z,6200.00
2018-05-15T10:48:19.175Z,6064.00
2018-05-15T10:49:19.203Z,6104.00
2018-05-15T10:50:19.232Z,6088.00
2018-05-15T10:51:19.258Z,6080.00
2018-05-15T10:52:19.285Z,5868.00
2018-05-15T10:53:19.312Z,5804.00
2018-05-15T10:54:19.340Z,5832.00
2018-05-15T10:55:19.366Z,5840.00
2018-05-15T10:56:19.394Z,5944.00
2018-05-15T10:57:19.423Z,5944.00
2018-05-15T10:58:19.450Z,5688.00
2018-05-15T10:59:19.476Z,5764.00
2018-05-15T11:00:19.505Z,5460.00
2018-05-15T11:01:19.532Z,5428.00
2018-05-15T11:02:19.559Z,5340.00
2018-05-15T11:03:19.587Z,5196.00
2018-05-15T11:04:19.614Z,5324.00
2018-05-15T11:05:19.641Z,5760.00
2018-05-15T11:06:19.675Z,5644.00
2018-05-15T11:07:19.694Z,4916.00
2018-05-15T11:08:19.725Z,5280.00
2018-05-15T11:09:19.752Z,5824.00
2018-05-15T11:10:19.776Z,5768.00
2018-05-15T11:11:19.805Z,5700.00
2018-05-15T11:12:19.832Z,5668.00
2018-05-15T11:13:19.859Z,5628.00
2018-05-15T11:14:19.885Z,5364.00
2018-05-15T11:15:19.912Z,5160.00
2018-05-15T11:16:19.939Z,5148.00
2018-05-15T11:17:19.966Z,4740.00
2018-05-15T11:18:19.993Z,4568.00
2018-05-15T11:19:20.021Z,4944.00
2018-05-15T11:20:20.048Z,3624.00
2018-05-15T11:21:20.075Z,4348.00
2018-05-15T11:22:20.102Z,5948.00
2018-05-15T11:23:20.130Z,6276.00
2018-05-15T11:24:20.156Z,6208.00
2018-05-15T11:25:20.183Z,6304.00
2018-05-15T11:26:20.307Z,6116.00
2018-05-15T11:27:20.237Z,6484.00
2018-05-15T11:28:20.264Z,6160.00
2018-05-15T11:29:20.343Z,6016.00
2018-05-15T11:30:20.319Z,5820.00
2018-05-15T11:31:20.349Z,5572.00
2018-05-15T11:32:21.073Z,5408.00
2018-05-15T11:33:20.399Z,5312.00
2018-05-15T11:34:20.427Z,5128.00
2018-05-15T11:35:20.452Z,5116.00
2018-05-15T11:36:20.483Z,4968.00
2018-05-15T11:37:20.511Z,4944.00
2018-05-15T11:38:20.537Z,4932.00
2018-05-15T11:39:20.560Z,4836.00
2018-05-15T11:40:20.589Z,4828.00
2018-05-15T11:41:20.623Z,4812.00
2018-05-15T11:42:20.642Z,4812.00
2018-05-15T11:43:20.670Z,4760.00
2018-05-15T11:44:20.698Z,4944.00
2018-05-15T11:45:20.725Z,4856.00
2018-05-15T11:46:20.763Z,4776.00
2018-05-15T11:47:20.824Z,4744.00
2018-05-15T11:48:21.483Z,4796.00
2018-05-15T11:49:21.272Z,4724.00
2018-05-15T11:50:21.984Z,4748.00
2018-05-15T11:51:21.584Z,4704.00
2018-05-15T11:52:21.588Z,4752.00
2018-05-15T11:53:21.171Z,4676.00
2018-05-15T11:54:20.967Z,4684.00
2018-05-15T11:55:20.997Z,4776.00
2018-05-15T11:56:21.024Z,4904.00
2018-05-15T11:57:21.047Z,4244.00
2018-05-15T11:58:21.156Z,4588.00
2018-05-15T11:59:21.102Z,4692.00
2018-05-15T12:00:21.128Z,4720.00
2018-05-15T12:01:21.156Z,4636.00
2018-05-15T12:02:21.189Z,4980.00
2018-05-15T12:03:21.210Z,4792.00
2018-05-15T12:04:21.236Z,4792.00
2018-05-15T12:05:21.263Z,4836.00
2018-05-15T12:06:21.292Z,4912.00
2018-05-15T12:07:21.319Z,4844.00
2018-05-15T12:08:21.531Z,4856.00
2018-05-15T12:09:21.372Z,4868.00
2018-05-15T12:10:21.400Z,5032.00
2018-05-15T12:11:21.431Z,4988.00
2018-05-15T12:12:21.453Z,4960.00
2018-05-15T12:13:21.481Z,5148.00
2018-05-15T12:14:21.558Z,5004.00
2018-05-15T12:15:21.535Z,5000.00
2018-05-15T12:16:21.563Z,5052.00
2018-05-15T12:17:21.590Z,5080.00
2018-05-15T12:18:21.616Z,5064.00
2018-05-15T12:19:21.694Z,5052.00
2018-05-15T12:20:21.676Z,4972.00
2018-05-15T12:21:21.698Z,5156.00
2018-05-15T12:22:21.725Z,5192.00
2018-05-15T12:23:21.750Z,5224.00
2018-05-15T12:24:21.777Z,5180.00
2018-05-15T12:25:21.804Z,5188.00
2018-05-15T12:26:21.833Z,5160.00